Time;durP1;ratioP1;P1;durP2;ratioP2;P2;SDS_P1;SDS_P2;PMS_P1;PMS_P2;Temp;Humidity;BMP_temperature;BMP_pressure;BME280_temperature;BME280_humidity;BME280_pressure;Samples;Min_cycle;Max_cycle;Signal;HPM_P1;HPM_P2
2023/02/03 00:00:18;;;;;;;11.63;2.50;;;;;;;7.29;100.00;102613.09;5117255;28;20035;-76
2023/02/03 00:02:44;;;;;;;14.07;2.80;;;;;;;7.20;100.00;102609.09;5116458;28;20059;-76
2023/02/03 00:05:09;;;;;;;18.05;3.42;;;;;;;7.12;100.00;102619.22;5116578;28;20027;-75
2023/02/03 00:07:37;;;;;;;10.48;2.95;;;;;;;7.10;100.00;102599.03;5115991;28;20079;-76
2023/02/03 00:10:03;;;;;;;22.23;2.75;;;;;;;7.04;100.00;102603.66;5115448;28;20032;-76
2023/02/03 00:12:28;;;;;;;13.30;2.83;;;;;;;7.05;100.00;102596.59;5116298;28;20027;-76
2023/02/03 00:14:54;;;;;;;14.80;2.80;;;;;;;7.00;100.00;102596.84;5116397;28;20023;-76
2023/02/03 00:17:19;;;;;;;19.05;3.03;;;;;;;7.03;100.00;102607.28;5116233;28;20044;-76
2023/02/03 00:19:44;;;;;;;15.20;2.90;;;;;;;7.10;100.00;102602.53;5116167;28;20455;-75
2023/02/03 00:22:10;;;;;;;13.40;2.63;;;;;;;7.16;100.00;102594.28;5114539;28;20114;-76
2023/02/03 00:24:35;;;;;;;12.65;2.53;;;;;;;7.20;100.00;102611.75;5116006;28;20020;-75
2023/02/03 00:27:00;;;;;;;15.38;2.70;;;;;;;7.19;100.00;102615.31;5116268;28;20065;-75
2023/02/03 00:29:26;;;;;;;12.40;2.40;;;;;;;7.25;100.00;102611.53;5115760;28;20035;-75
2023/02/03 00:31:52;;;;;;;12.07;2.58;;;;;;;7.31;100.00;102615.66;5116128;28;20042;-75
2023/02/03 00:34:18;;;;;;;16.60;2.38;;;;;;;7.32;100.00;102620.03;5116055;28;20023;-75
2023/02/03 00:36:45;;;;;;;11.95;2.47;;;;;;;7.31;100.00;102619.16;5115797;28;20058;-75
2023/02/03 00:39:11;;;;;;;16.05;2.58;;;;;;;7.31;100.00;102632.41;5116477;28;20053;-74
2023/02/03 00:41:36;;;;;;;20.33;2.88;;;;;;;7.32;100.00;102615.59;5115443;28;20474;-75
2023/02/03 00:44:01;;;;;;;21.30;3.50;;;;;;;7.35;100.00;102626.03;5115796;28;20561;-75
2023/02/03 00:46:27;;;;;;;12.40;2.28;;;;;;;7.37;100.00;102636.56;5115796;28;20035;-75
2023/02/03 00:48:52;;;;;;;20.23;3.28;;;;;;;7.39;100.00;102619.66;5115588;28;20038;-76
2023/02/03 00:51:17;;;;;;;16.17;3.13;;;;;;;7.41;100.00;102607.19;5115016;28;20065;-76
2023/02/03 00:53:43;;;;;;;12.60;3.03;;;;;;;7.46;100.00;102629.97;5115840;28;20051;-75
2023/02/03 00:56:11;;;;;;;19.13;2.58;;;;;;;7.46;100.00;102614.06;5115437;28;20042;-75
2023/02/03 00:58:40;;;;;;;16.27;2.50;;;;;;;7.53;100.00;102607.53;5115831;28;20093;-75
2023/02/03 01:01:06;;;;;;;17.20;2.50;;;;;;;7.57;100.00;102609.09;5114458;28;20031;-75
2023/02/03 01:03:32;;;;;;;15.57;2.45;;;;;;;7.63;100.00;102594.66;5115541;28;20031;-76
2023/02/03 01:06:18;;;;;;;21.88;3.13;;;;;;;7.64;100.00;102593.75;5115150;28;20073;-75
2023/02/03 01:08:43;;;;;;;23.70;3.03;;;;;;;7.64;100.00;102605.19;5115663;28;20431;-75
2023/02/03 01:11:14;;;;;;;13.60;2.25;;;;;;;7.62;100.00;102617.66;5115232;28;20085;-75
2023/02/03 01:13:39;;;;;;;10.20;2.65;;;;;;;7.65;100.00;102633.41;5115266;28;20027;-76
2023/02/03 01:16:13;;;;;;;19.13;2.40;;;;;;;7.63;100.00;102608.78;5115105;28;20167;-74
2023/02/03 01:18:38;;;;;;;12.43;2.65;;;;;;;7.68;100.00;102617.38;5115000;28;20020;-75
2023/02/03 01:21:06;;;;;;;9.50;2.58;;;;;;;7.72;100.00;102626.03;5114689;28;20066;-75
2023/02/03 01:23:32;;;;;;;18.35;2.88;;;;;;;7.69;100.00;102611.13;5115053;28;20024;-75
2023/02/03 01:26:03;;;;;;;16.00;2.33;;;;;;;7.67;100.00;102599.75;5115223;28;20119;-75
2023/02/03 01:28:28;;;;;;;10.90;1.88;;;;;;;7.68;100.00;102568.81;5114844;28;20072;-74
2023/02/03 01:30:53;;;;;;;15.90;2.05;;;;;;;7.68;100.00;102555.56;5114771;28;20024;-75
2023/02/03 01:33:19;;;;;;;9.43;2.10;;;;;;;7.70;100.00;102554.56;5114521;28;20059;-74
2023/02/03 01:35:44;;;;;;;17.02;2.42;;;;;;;7.72;100.00;102557.13;5114923;28;20024;-74
2023/02/03 01:38:09;;;;;;;14.38;2.10;;;;;;;7.77;100.00;102585.09;5115233;28;20048;-75
2023/02/03 01:40:42;;;;;;;11.82;2.38;;;;;;;7.79;100.00;102584.16;5114896;28;20197;-75
2023/02/03 01:43:09;;;;;;;14.15;2.60;;;;;;;7.77;100.00;102587.75;5115007;28;20024;-74
2023/02/03 01:45:34;;;;;;;9.60;2.00;;;;;;;7.81;100.00;102574.34;5114584;28;20038;-74
2023/02/03 01:48:00;;;;;;;15.30;2.35;;;;;;;7.81;100.00;102569.91;5114159;28;20394;-74
2023/02/03 01:50:35;;;;;;;12.65;2.03;;;;;;;7.81;100.00;102576.97;5113251;28;20028;-75
2023/02/03 01:53:04;;;;;;;12.43;2.00;;;;;;;7.82;100.00;102581.34;5114471;28;20043;-75
2023/02/03 01:55:37;;;;;;;12.52;2.03;;;;;;;7.83;100.00;102580.44;5114326;28;20032;-75
2023/02/03 01:58:11;;;;;;;9.95;2.38;;;;;;;7.88;100.00;102583.69;5114401;28;20019;-74
2023/02/03 02:00:38;;;;;;;14.68;2.55;;;;;;;7.84;100.00;102576.84;5114849;28;20027;-75
2023/02/03 02:03:06;;;;;;;10.70;2.00;;;;;;;7.84;100.00;102574.22;5113739;28;20080;-75
2023/02/03 02:05:41;;;;;;;9.90;2.30;;;;;;;7.83;100.00;102575.13;5114413;28;20030;-75
2023/02/03 02:08:08;;;;;;;10.00;2.42;;;;;;;7.82;100.00;102574.25;5113778;28;20076;-75
2023/02/03 02:10:34;;;;;;;12.48;2.15;;;;;;;7.82;100.00;102553.06;5114337;28;20027;-75
2023/02/03 02:13:02;;;;;;;8.73;2.38;;;;;;;7.82;100.00;102550.41;5112760;28;20122;-74
2023/02/03 02:15:48;;;;;;;14.35;2.58;;;;;;;7.79;100.00;102547.91;5113982;28;20061;-74
2023/02/03 02:18:16;;;;;;;13.77;2.33;;;;;;;7.82;100.00;102546.91;5114324;28;20028;-75
2023/02/03 02:21:14;;;;;;;13.57;2.80;;;;;;;7.82;100.00;102539.81;5112535;28;20024;-75
2023/02/03 02:24:16;;;;;;;8.73;2.38;;;;;;;7.82;100.00;102545.09;5105474;28;20031;-74
2023/02/03 02:26:56;;;;;;;8.77;2.17;;;;;;;7.85;100.00;102546.75;5113932;28;20053;-74
2023/02/03 02:29:21;;;;;;;11.35;2.60;;;;;;;7.83;100.00;102540.69;5113799;28;20031;-75
2023/02/03 02:32:04;;;;;;;13.15;2.97;;;;;;;7.80;100.00;102531.09;5113966;28;20049;-75
2023/02/03 02:34:38;;;;;;;12.75;2.20;;;;;;;7.79;100.00;102537.31;5114011;28;20134;-74
2023/02/03 02:37:33;;;;;;;9.70;2.50;;;;;;;7.80;100.00;102552.28;5113712;28;20027;-74
2023/02/03 02:40:07;;;;;;;14.82;2.75;;;;;;;7.82;100.00;102554.84;5108130;28;20035;-74
2023/02/03 02:43:07;;;;;;;10.15;2.28;;;;;;;7.81;100.00;102567.25;5114089;28;20058;-73
2023/02/03 02:45:47;;;;;;;16.55;2.58;;;;;;;7.80;100.00;102539.03;5113325;28;20099;-74
2023/02/03 02:48:25;;;;;;;12.10;2.67;;;;;;;7.78;100.00;102564.78;5113523;28;20102;-74
2023/02/03 02:50:54;;;;;;;12.55;2.17;;;;;;;7.79;100.00;102549.72;5113124;28;20088;-75
2023/02/03 02:53:23;;;;;;;10.82;2.33;;;;;;;7.77;100.00;102537.41;5113719;28;20036;-75
2023/02/03 02:55:52;;;;;;;16.27;2.85;;;;;;;7.78;100.00;102540.91;5113060;28;20313;-74
2023/02/03 02:58:19;;;;;;;10.77;2.75;;;;;;;7.80;100.00;102570.84;5113606;28;20022;-74
2023/02/03 03:00:45;;;;;;;16.70;2.47;;;;;;;7.81;100.00;102551.38;5113357;28;20020;-75
2023/02/03 03:03:22;;;;;;;13.70;2.63;;;;;;;7.86;100.00;102557.28;5113425;28;20027;-74
2023/02/03 03:05:55;;;;;;;11.13;2.10;;;;;;;7.80;100.00;102519.66;5113927;28;20030;-75
2023/02/03 03:08:28;;;;;;;14.73;2.10;;;;;;;7.80;100.00;102507.25;5112115;28;20367;-75
2023/02/03 03:10:55;;;;;;;14.27;2.40;;;;;;;7.77;100.00;102524.16;5113314;28;20144;-75
2023/02/03 03:13:26;;;;;;;16.42;2.22;;;;;;;7.75;100.00;102504.84;5113025;28;20459;-74
2023/02/03 03:15:55;;;;;;;14.38;2.75;;;;;;;7.74;100.00;102515.50;5113276;28;20034;-74
2023/02/03 03:18:27;;;;;;;17.85;2.72;;;;;;;7.73;100.00;102519.09;5113224;28;20023;-74
2023/02/03 03:20:58;;;;;;;13.05;2.03;;;;;;;7.68;100.00;102521.13;5113212;28;20019;-74
2023/02/03 03:23:29;;;;;;;17.38;2.38;;;;;;;7.64;100.00;102543.41;5114570;28;20110;-74
2023/02/03 03:26:06;;;;;;;19.08;2.67;;;;;;;7.65;100.00;102539.84;5117503;28;20016;-75
2023/02/03 03:28:47;;;;;;;12.13;2.35;;;;;;;7.66;100.00;102534.47;5117849;28;20023;-74
2023/02/03 03:31:13;;;;;;;8.98;2.42;;;;;;;7.66;100.00;102545.06;5117474;28;20059;-74
2023/02/03 03:33:39;;;;;;;18.48;2.83;;;;;;;7.67;100.00;102546.75;5116815;28;20043;-73
2023/02/03 03:36:08;;;;;;;14.55;2.58;;;;;;;7.68;100.00;102548.47;5116995;28;20490;-75
2023/02/03 03:38:51;;;;;;;15.30;2.30;;;;;;;7.66;100.00;102525.63;5117537;28;20505;-73
2023/02/03 03:41:49;;;;;;;15.00;2.65;;;;;;;7.64;100.00;102538.97;5117270;28;20072;-75
2023/02/03 03:44:16;;;;;;;12.80;2.55;;;;;;;7.61;100.00;102523.22;5117295;28;20030;-75
2023/02/03 03:46:50;;;;;;;9.05;2.00;;;;;;;7.57;100.00;102530.47;5117107;28;20080;-75
2023/02/03 03:49:19;;;;;;;9.57;2.10;;;;;;;7.56;100.00;102536.72;5116597;28;20023;-75
2023/02/03 03:51:57;;;;;;;15.50;3.15;;;;;;;7.53;100.00;102534.22;5116756;28;20106;-75
2023/02/03 03:54:25;;;;;;;16.38;2.25;;;;;;;7.53;100.00;102528.91;5116487;28;20036;-75
2023/02/03 03:57:14;;;;;;;9.85;2.03;;;;;;;7.49;100.00;102531.81;5117058;28;20532;-74
2023/02/03 03:59:42;;;;;;;15.05;2.40;;;;;;;7.49;100.00;102553.00;5116402;28;20027;-75
2023/02/03 04:02:09;;;;;;;17.27;3.67;;;;;;;7.53;100.00;102528.06;5116669;28;20023;-75
2023/02/03 04:04:38;;;;;;;13.82;2.60;;;;;;;7.57;100.00;102537.59;5116822;28;20028;-75
2023/02/03 04:07:03;;;;;;;14.63;2.33;;;;;;;7.59;100.00;102523.31;5116743;28;20020;-75
2023/02/03 04:09:29;;;;;;;8.77;1.98;;;;;;;7.63;100.00;102545.22;5116438;28;20019;-76
2023/02/03 04:12:00;;;;;;;13.38;2.60;;;;;;;7.62;100.00;102561.19;5116309;28;20027;-75
2023/02/03 04:14:27;;;;;;;;;;;;;;;7.63;100.00;102557.59;5117182;28;20155;-74
2023/02/03 04:16:52;;;;;;;14.15;1.92;;;;;;;7.61;100.00;102546.22;5116532;28;19903;-74
2023/02/03 04:19:18;;;;;;;15.95;2.65;;;;;;;7.59;100.00;102551.59;5116389;28;20367;-74
2023/02/03 04:21:43;;;;;;;14.18;2.00;;;;;;;7.57;100.00;102537.59;5116178;28;20355;-76
2023/02/03 04:24:08;;;;;;;17.13;2.63;;;;;;;7.57;100.00;102538.44;5116678;28;20026;-75
2023/02/03 04:26:34;;;;;;;13.95;2.35;;;;;;;7.58;100.00;102561.34;5116194;28;20027;-75
2023/02/03 04:28:59;;;;;;;12.05;2.42;;;;;;;7.55;100.00;102545.59;5116113;28;20392;-74
2023/02/03 04:31:24;;;;;;;13.10;2.83;;;;;;;7.50;100.00;102544.97;5114885;28;20073;-75
2023/02/03 04:33:50;;;;;;;21.73;3.58;;;;;;;7.46;100.00;102535.44;5116272;28;20045;-74
2023/02/03 04:36:15;;;;;;;15.35;2.55;;;;;;;7.43;100.00;102538.25;5114908;28;20030;-74
2023/02/03 04:38:40;;;;;;;9.30;2.10;;;;;;;7.40;100.00;102549.88;5116261;28;20039;-74
2023/02/03 04:41:06;;;;;;;15.48;2.15;;;;;;;7.39;100.00;102537.56;5115775;28;20028;-75
2023/02/03 04:43:31;;;;;;;16.13;2.78;;;;;;;7.39;100.00;102550.81;5115550;28;20102;-74
2023/02/03 04:45:59;;;;;;;14.13;2.35;;;;;;;7.34;100.00;102551.97;5115431;28;20524;-74
2023/02/03 04:48:24;;;;;;;18.30;3.15;;;;;;;7.34;100.00;102550.16;5116016;28;20043;-74
2023/02/03 04:50:51;;;;;;;13.55;2.53;;;;;;;7.31;100.00;102555.63;5115318;28;20544;-74
2023/02/03 04:53:16;;;;;;;14.48;2.03;;;;;;;7.31;100.00;102563.56;5115694;28;20044;-74
2023/02/03 04:55:46;;;;;;;11.23;2.40;;;;;;;7.36;100.00;102571.28;5115592;28;20042;-75
2023/02/03 04:58:11;;;;;;;14.93;2.45;;;;;;;7.37;100.00;102557.09;5115296;28;20062;-74
2023/02/03 05:00:37;;;;;;;13.95;2.20;;;;;;;7.40;100.00;102563.13;5115656;28;20049;-73
2023/02/03 05:03:02;;;;;;;16.33;2.42;;;;;;;7.44;100.00;102550.56;5115221;28;20024;-75
2023/02/03 05:05:27;;;;;;;11.70;2.63;;;;;;;7.44;100.00;102549.72;5115351;28;20023;-74
2023/02/03 05:07:53;;;;;;;15.55;2.47;;;;;;;7.41;100.00;102538.34;5115391;28;20408;-74
2023/02/03 05:10:18;;;;;;;20.33;3.05;;;;;;;7.40;100.00;102555.19;5115297;28;20051;-74
2023/02/03 05:12:43;;;;;;;15.05;3.17;;;;;;;7.41;100.00;102550.72;5115353;28;20031;-75
2023/02/03 05:15:09;;;;;;;14.25;2.13;;;;;;;7.39;100.00;102558.75;5115025;28;20039;-75
2023/02/03 05:17:38;;;;;;;13.68;2.95;;;;;;;7.37;100.00;102559.75;5115201;28;20023;-74
2023/02/03 05:20:05;;;;;;;14.15;2.45;;;;;;;7.33;100.00;102545.81;5114666;28;20030;-74
2023/02/03 05:22:30;;;;;;;10.93;2.40;;;;;;;7.33;100.00;102547.59;5114868;28;20089;-74
2023/02/03 05:24:56;;;;;;;18.25;2.50;;;;;;;7.30;100.00;102553.91;5113642;28;20023;-74
2023/02/03 05:27:21;;;;;;;15.65;2.55;;;;;;;7.33;100.00;102529.94;5113512;28;20027;-73
2023/02/03 05:29:46;;;;;;;10.05;2.10;;;;;;;7.34;100.00;102546.66;5114878;28;20080;-74
2023/02/03 05:32:11;;;;;;;17.38;2.33;;;;;;;7.30;100.00;102547.75;5113468;28;20034;-74
2023/02/03 05:34:37;;;;;;;15.77;2.63;;;;;;;7.30;100.00;102559.22;5115472;28;20023;-73
2023/02/03 05:37:02;;;;;;;16.45;2.72;;;;;;;7.27;100.00;102556.72;5114868;28;20024;-74
2023/02/03 05:39:28;;;;;;;17.95;3.38;;;;;;;7.27;100.00;102561.13;5113439;28;20463;-74
2023/02/03 05:41:53;;;;;;;15.93;2.53;;;;;;;7.30;100.00;102550.41;5113280;28;20023;-74
2023/02/03 05:44:20;;;;;;;13.75;2.75;;;;;;;7.32;100.00;102552.03;5114345;28;20058;-74
2023/02/03 05:46:46;;;;;;;15.50;2.42;;;;;;;7.32;100.00;102544.09;5115155;28;20420;-74
2023/02/03 05:49:11;;;;;;;13.57;2.53;;;;;;;7.27;100.00;102555.84;5114606;28;20024;-74
2023/02/03 05:51:38;;;;;;;17.92;3.92;;;;;;;7.28;100.00;102544.34;5114564;28;20452;-75
2023/02/03 05:54:04;;;;;;;18.08;2.65;;;;;;;7.26;100.00;102539.09;5114983;28;20047;-74
2023/02/03 05:56:29;;;;;;;14.10;2.83;;;;;;;7.24;100.00;102552.44;5113527;28;20050;-74
2023/02/03 05:58:54;;;;;;;19.35;2.80;;;;;;;7.23;100.00;102560.44;5114723;28;20075;-74
2023/02/03 06:01:20;;;;;;;13.23;2.85;;;;;;;7.23;100.00;102576.34;5114709;28;20337;-74
2023/02/03 06:03:46;;;;;;;15.23;3.00;;;;;;;7.21;100.00;102543.75;5114214;28;20419;-74
2023/02/03 06:06:11;;;;;;;21.20;2.85;;;;;;;7.18;100.00;102554.50;5114245;28;20459;-75
2023/02/03 06:08:37;;;;;;;19.38;3.35;;;;;;;7.11;100.00;102553.13;5114408;28;20028;-75
2023/02/03 06:11:02;;;;;;;15.00;2.92;;;;;;;7.06;100.00;102538.31;5112798;28;20027;-74
2023/02/03 06:13:28;;;;;;;9.43;2.35;;;;;;;7.05;100.00;102552.47;5114360;28;20027;-74
2023/02/03 06:15:53;;;;;;;19.92;2.78;;;;;;;7.06;100.00;102561.25;5114145;28;20435;-74
2023/02/03 06:18:19;;;;;;;23.25;3.42;;;;;;;7.07;100.00;102547.09;5113999;28;20549;-75
2023/02/03 06:20:45;;;;;;;15.00;2.60;;;;;;;7.08;100.00;102538.22;5113988;28;20401;-74
2023/02/03 06:23:10;;;;;;;20.23;2.40;;;;;;;7.05;100.00;102546.31;5114408;28;20038;-74
2023/02/03 06:25:35;;;;;;;24.23;3.20;;;;;;;7.03;100.00;102553.44;5114160;28;20371;-74
2023/02/03 06:28:01;;;;;;;19.15;2.92;;;;;;;7.02;100.00;102544.66;5114610;28;20046;-74
2023/02/03 06:30:26;;;;;;;11.68;2.60;;;;;;;7.02;100.00;102554.41;5112754;28;20024;-75
2023/02/03 06:32:51;;;;;;;19.35;3.05;;;;;;;7.02;100.00;102557.91;5113688;28;20035;-75
2023/02/03 06:35:17;;;;;;;17.63;2.85;;;;;;;7.02;100.00;102581.72;5113639;28;20503;-75
2023/02/03 06:37:43;;;;;;;16.65;2.45;;;;;;;7.05;100.00;102565.69;5112457;28;20027;-75
2023/02/03 06:40:09;;;;;;;26.33;2.65;;;;;;;7.09;100.00;102568.19;5114012;28;20024;-75
2023/02/03 06:42:35;;;;;;;10.82;2.50;;;;;;;7.11;100.00;102600.75;5113750;28;20024;-74
2023/02/03 06:45:00;;;;;;;23.90;3.20;;;;;;;7.20;100.00;102592.38;5113764;28;20073;-74
2023/02/03 06:47:26;;;;;;;21.45;3.03;;;;;;;7.24;100.00;102568.31;5112124;28;20027;-74
2023/02/03 06:49:52;;;;;;;15.35;2.67;;;;;;;7.20;100.00;102598.50;5113459;28;20023;-74
2023/02/03 06:52:17;;;;;;;19.85;3.00;;;;;;;7.24;100.00;102604.53;5113373;28;20416;-74
2023/02/03 06:54:43;;;;;;;20.80;2.83;;;;;;;7.31;100.00;102611.22;5113595;28;20058;-73
2023/02/03 06:57:08;;;;;;;13.13;2.35;;;;;;;7.32;100.00;102605.00;5113309;28;20448;-74
2023/02/03 06:59:34;;;;;;;12.57;2.78;;;;;;;7.36;100.00;102609.22;5113015;28;20036;-73
2023/02/03 07:01:59;;;;;;;16.67;2.67;;;;;;;7.36;100.00;102590.69;5112974;28;20027;-73
2023/02/03 07:04:28;;;;;;;20.33;2.85;;;;;;;7.36;100.00;102597.75;5113336;28;20031;-75
2023/02/03 07:06:54;;;;;;;13.98;2.47;;;;;;;7.34;100.00;102611.06;5113868;28;20078;-75
2023/02/03 07:09:20;;;;;;;17.63;3.80;;;;;;;7.34;100.00;102621.66;5113341;28;20444;-75
2023/02/03 07:11:45;;;;;;;26.88;3.08;;;;;;;7.38;100.00;102617.94;5113297;28;20053;-74
2023/02/03 07:14:10;;;;;;;13.27;2.90;;;;;;;7.39;100.00;102603.78;5113529;28;20063;-75
2023/02/03 07:16:36;;;;;;;14.10;2.65;;;;;;;7.41;100.00;102636.31;5113351;28;20023;-76
2023/02/03 07:19:02;;;;;;;12.65;2.63;;;;;;;7.46;100.00;102622.00;5112588;28;20027;-74
2023/02/03 07:21:28;;;;;;;22.50;3.08;;;;;;;7.46;100.00;102627.31;5113215;28;20031;-75
2023/02/03 07:23:53;;;;;;;18.35;2.78;;;;;;;7.45;100.00;102629.09;5113100;28;20036;-74
2023/02/03 07:26:21;;;;;;;17.42;3.30;;;;;;;7.45;100.00;102631.75;5112947;28;20103;-75
2023/02/03 07:28:47;;;;;;;15.95;2.88;;;;;;;7.46;100.00;102632.59;5095862;28;20023;-74
2023/02/03 07:31:12;;;;;;;17.38;3.30;;;;;;;7.48;100.00;102628.97;5112122;28;20367;-74
2023/02/03 07:33:38;;;;;;;28.40;3.10;;;;;;;7.48;100.00;102621.00;5111967;28;20024;-74
2023/02/03 07:36:05;;;;;;;16.55;2.67;;;;;;;7.53;100.00;102623.44;5113076;28;20027;-73
2023/02/03 07:38:30;;;;;;;21.60;3.20;;;;;;;7.56;100.00;102615.31;5112969;28;20031;-75
2023/02/03 07:40:56;;;;;;;18.70;2.92;;;;;;;7.57;100.00;102614.41;5113380;28;20031;-75
2023/02/03 07:43:22;;;;;;;18.17;2.75;;;;;;;7.56;100.00;102615.31;5113459;28;20031;-76
2023/02/03 07:45:47;;;;;;;15.60;3.08;;;;;;;7.58;100.00;102610.81;5112765;28;20032;-73
2023/02/03 07:48:13;;;;;;;16.95;3.28;;;;;;;7.62;100.00;102625.63;5113105;28;20035;-75
2023/02/03 07:50:39;;;;;;;18.45;2.55;;;;;;;7.65;100.00;102616.66;5112944;28;20035;-73
2023/02/03 07:53:07;;;;;;;17.05;2.83;;;;;;;7.64;100.00;102626.38;5112843;28;20444;-73
2023/02/03 07:55:33;;;;;;;14.60;2.60;;;;;;;7.68;100.00;102622.66;5112828;28;20077;-74
2023/02/03 07:57:58;;;;;;;18.08;3.00;;;;;;;7.68;100.00;102620.00;5113137;28;20019;-74
2023/02/03 08:00:25;;;;;;;18.23;2.90;;;;;;;7.65;100.00;102649.31;5112835;28;20034;-75
2023/02/03 08:02:50;;;;;;;18.48;2.63;;;;;;;7.64;100.00;102634.34;5113064;28;20024;-73
2023/02/03 08:05:17;;;;;;;20.10;3.42;;;;;;;7.66;100.00;102652.81;5112855;28;20020;-74
2023/02/03 08:07:43;;;;;;;23.42;3.00;;;;;;;7.67;100.00;102662.47;5112518;28;20024;-73
2023/02/03 08:10:10;;;;;;;18.77;2.75;;;;;;;7.66;100.00;102658.97;5113977;28;20027;-73
2023/02/03 08:12:36;;;;;;;16.60;2.67;;;;;;;7.66;100.00;102656.34;5116459;28;20500;-74
2023/02/03 08:15:01;;;;;;;19.63;3.03;;;;;;;7.65;100.00;102659.06;5116537;28;20027;-74
2023/02/03 08:17:27;;;;;;;13.50;2.22;;;;;;;7.66;100.00;102660.75;5116166;28;20502;-74
2023/02/03 08:19:52;;;;;;;18.00;2.90;;;;;;;7.66;100.00;102671.34;5116325;28;20447;-74
2023/02/03 08:22:18;;;;;;;20.10;3.35;;;;;;;7.64;100.00;102679.38;5116286;28;20024;-74
2023/02/03 08:24:47;;;;;;;21.20;3.35;;;;;;;7.62;100.00;102664.50;5115983;28;20106;-74
2023/02/03 08:27:14;;;;;;;18.98;3.28;;;;;;;7.62;100.00;102662.72;5116218;28;20020;-75
2023/02/03 08:29:40;;;;;;;19.83;3.03;;;;;;;7.66;100.00;102671.34;5116411;28;20053;-74
2023/02/03 08:32:09;;;;;;;13.45;3.85;;;;;;;7.68;100.00;102677.44;5116866;28;20023;-73
2023/02/03 08:34:35;;;;;;;15.18;2.88;;;;;;;7.69;100.00;102677.38;5116142;28;20024;-74
2023/02/03 08:37:00;;;;;;;15.82;2.83;;;;;;;7.68;100.00;102673.00;5116119;28;20152;-74
2023/02/03 08:39:25;;;;;;;19.60;3.53;;;;;;;7.72;100.00;102690.47;5116468;28;20029;-73
2023/02/03 08:41:51;;;;;;;16.35;3.42;;;;;;;7.76;100.00;102680.56;5116608;28;20035;-73
2023/02/03 08:44:18;;;;;;;16.35;2.78;;;;;;;7.72;100.00;102673.72;5115908;28;20042;-75
2023/02/03 08:46:44;;;;;;;20.17;2.40;;;;;;;7.74;100.00;102704.50;5115778;28;20035;-73
2023/02/03 08:49:10;;;;;;;14.90;3.53;;;;;;;7.77;100.00;102682.28;5115821;28;20076;-76
2023/02/03 08:51:36;;;;;;;15.48;2.60;;;;;;;7.81;100.00;102696.25;5115570;28;20031;-71
2023/02/03 08:54:02;;;;;;;15.57;2.85;;;;;;;7.84;100.00;102702.25;5116657;28;20047;-72
2023/02/03 08:56:27;;;;;;;21.98;2.83;;;;;;;7.89;100.00;102683.47;5116426;28;20027;-72
2023/02/03 08:58:53;;;;;;;8.93;2.42;;;;;;;7.94;100.00;102697.34;5115255;28;20028;-73
2023/02/03 09:01:19;;;;;;;25.42;3.08;;;;;;;7.97;100.00;102702.50;5115500;28;20019;-74
2023/02/03 09:03:44;;;;;;;24.33;3.53;;;;;;;7.95;100.00;102693.78;5115525;28;20435;-74
2023/02/03 09:06:15;;;;;;;16.77;3.10;;;;;;;7.92;100.00;102701.88;5115717;28;20031;-73
2023/02/03 09:08:41;;;;;;;21.80;3.10;;;;;;;7.87;100.00;102710.06;5115342;28;20038;-73
2023/02/03 09:11:15;;;;;;;21.35;3.38;;;;;;;7.85;100.00;102726.97;5116070;28;20032;-73
2023/02/03 09:13:44;;;;;;;18.25;2.92;;;;;;;7.86;100.00;102710.13;5115572;28;20533;-73
2023/02/03 09:16:11;;;;;;;22.17;3.60;;;;;;;7.88;100.00;102724.16;5115359;28;20031;-74
2023/02/03 09:18:36;;;;;;;21.15;3.33;;;;;;;7.87;100.00;102727.75;5115333;28;20486;-73
2023/02/03 09:21:10;;;;;;;20.77;2.95;;;;;;;7.92;100.00;102709.84;5114364;28;20059;-74
2023/02/03 09:23:35;;;;;;;11.07;2.38;;;;;;;7.93;100.00;102711.56;5114717;28;20113;-74
2023/02/03 09:26:05;;;;;;;14.23;3.33;;;;;;;8.00;100.00;102702.38;5114998;28;20028;-74
2023/02/03 09:28:32;;;;;;;13.02;2.60;;;;;;;8.07;100.00;102730.25;5115206;28;20103;-73
2023/02/03 09:31:06;;;;;;;16.58;2.60;;;;;;;8.15;100.00;102703.41;5114844;28;20439;-73
2023/02/03 09:33:31;;;;;;;11.35;2.25;;;;;;;8.25;100.00;102722.31;5114612;28;20510;-74
2023/02/03 09:35:57;;;;;;;13.35;2.38;;;;;;;8.36;100.00;102721.78;5114750;28;20133;-74
2023/02/03 09:38:23;;;;;;;12.20;2.47;;;;;;;8.48;100.00;102734.47;5114426;28;20066;-74
2023/02/03 09:40:53;;;;;;;14.88;2.33;;;;;;;8.55;100.00;102727.88;5114664;28;20051;-74
2023/02/03 09:43:41;;;;;;;13.27;2.83;;;;;;;8.64;100.00;102727.41;5114866;28;20072;-73
2023/02/03 09:46:18;;;;;;;17.27;2.65;;;;;;;8.70;100.00;102744.78;5114769;28;20019;-74
2023/02/03 09:48:50;;;;;;;13.02;2.40;;;;;;;8.75;100.00;102740.13;5114488;28;20020;-73
2023/02/03 09:51:39;;;;;;;11.38;2.15;;;;;;;8.82;100.00;102740.63;5114449;28;20025;-73
2023/02/03 09:54:43;;;;;;;21.92;2.65;;;;;;;8.75;100.00;102748.09;5114446;28;20119;-73
2023/02/03 09:57:27;;;;;;;21.95;2.78;;;;;;;8.72;100.00;102756.22;5114285;28;20026;-72
2023/02/03 09:59:56;;;;;;;14.50;3.17;;;;;;;8.73;100.00;102760.59;5114293;28;20034;-74
2023/02/03 10:02:58;;;;;;;20.13;3.15;;;;;;;8.75;100.00;102768.47;5113880;28;20023;-75
2023/02/03 10:05:42;;;;;;;11.13;2.55;;;;;;;8.80;100.00;102769.91;5112921;28;20034;-76
2023/02/03 10:08:33;;;;;;;14.48;3.33;;;;;;;8.88;100.00;102761.53;5114344;28;20027;-74
2023/02/03 10:11:19;;;;;;;;;;;;;;;8.83;100.00;102783.03;5082609;28;20046;-74
2023/02/03 10:13:47;;;;;;;11.68;1.88;;;;;;;8.99;100.00;102785.75;5102284;28;19907;-75
2023/02/03 10:16:31;;;;;;;17.02;3.08;;;;;;;8.97;100.00;102787.63;5114447;28;20039;-77
2023/02/03 10:18:59;;;;;;;18.77;3.58;;;;;;;9.06;100.00;102791.59;5112656;28;20036;-75
2023/02/03 10:21:30;;;;;;;15.60;2.67;;;;;;;9.09;100.00;102803.84;5113986;28;20428;-77
2023/02/03 10:23:59;;;;;;;11.57;2.67;;;;;;;9.18;100.00;102771.47;5114159;28;20030;-74
2023/02/03 10:26:26;;;;;;;10.13;1.98;;;;;;;9.10;100.00;102790.47;5113932;28;20034;-73
2023/02/03 10:28:57;;;;;;;11.02;2.17;;;;;;;8.98;100.00;102793.78;5113746;28;20034;-73
2023/02/03 10:31:26;;;;;;;15.48;3.08;;;;;;;9.12;100.00;102775.34;5114138;28;20028;-76
2023/02/03 10:34:03;;;;;;;14.48;2.50;;;;;;;9.03;100.00;102789.09;5112531;28;20081;-78
2023/02/03 10:36:53;;;;;;;21.27;2.20;;;;;;;9.06;100.00;102796.91;5113876;28;20469;-75
2023/02/03 10:39:35;;;;;;;9.93;1.90;;;;;;;9.12;100.00;102806.31;5113867;28;20113;-77
2023/02/03 10:42:03;;;;;;;18.88;2.30;;;;;;;9.07;100.00;102811.88;5113373;28;20037;-77
2023/02/03 10:44:54;;;;;;;14.93;2.35;;;;;;;9.14;100.00;102833.69;5112297;28;20028;-80
2023/02/03 10:47:25;;;;;;;13.43;2.90;;;;;;;9.24;100.00;102818.09;5106281;28;20043;-72
2023/02/03 10:49:53;;;;;;;8.18;2.03;;;;;;;9.28;100.00;102820.50;5113756;28;20088;-72
2023/02/03 10:52:27;;;;;;;11.18;1.92;;;;;;;9.25;100.00;102831.31;5113276;28;20103;-73
2023/02/03 10:54:54;;;;;;;17.42;2.55;;;;;;;9.20;100.00;102828.03;5112873;28;20348;-73
2023/02/03 10:57:20;;;;;;;14.02;2.33;;;;;;;9.23;100.00;102829.69;5113404;28;20136;-74
2023/02/03 10:59:47;;;;;;;16.90;2.83;;;;;;;9.23;100.00;102827.03;5113683;28;20416;-74
2023/02/03 11:02:28;;;;;;;9.00;2.17;;;;;;;9.32;100.00;102832.69;5113420;28;20081;-74
2023/02/03 11:05:15;;;;;;;17.63;2.55;;;;;;;9.23;100.00;102843.81;5113997;28;20464;-73
2023/02/03 11:07:40;;;;;;;15.88;2.47;;;;;;;9.20;100.00;102838.66;5113578;28;20024;-74
2023/02/03 11:10:38;;;;;;;13.88;2.47;;;;;;;9.14;100.00;102831.88;5113176;28;20077;-75
2023/02/03 11:13:16;;;;;;;15.38;2.40;;;;;;;9.11;100.00;102832.03;5106350;28;20456;-74
2023/02/03 11:16:01;;;;;;;11.90;2.00;;;;;;;9.16;100.00;102829.13;5113304;28;20031;-74
2023/02/03 11:18:55;;;;;;;10.73;2.28;;;;;;;9.14;100.00;102831.88;5113269;28;20035;-71
2023/02/03 11:21:38;;;;;;;16.30;2.38;;;;;;;9.11;100.00;102816.09;5113483;28;20054;-74
2023/02/03 11:24:18;;;;;;;13.68;2.30;;;;;;;9.18;100.00;102820.16;5113588;28;20058;-75
2023/02/03 11:26:45;;;;;;;16.88;2.30;;;;;;;9.19;100.00;102850.22;5113098;28;20426;-72
2023/02/03 11:29:19;;;;;;;14.82;2.47;;;;;;;9.20;100.00;102848.44;5113141;28;20024;-74